sensor_id;sensor_type;location;lat;lon;timestamp;pressure;altitude;pressure_sealevel;temperature;humidity
44926;BME280;30662;51.210;7.656;2023-06-10T00:01:46;153492.63;;;18.80;84.99
44926;BME280;30662;51.210;7.656;2023-06-10T00:04:15;153479.88;;;18.75;85.44
44926;BME280;30662;51.210;7.656;2023-06-10T00:06:45;153465.91;;;18.69;84.56
44926;BME280;30662;51.210;7.656;2023-06-10T00:09:14;153492.63;;;18.80;84.61
44926;BME280;30662;51.210;7.656;2023-06-10T00:11:40;153477.34;;;18.74;84.00
44926;BME280;30662;51.210;7.656;2023-06-10T00:14:06;153511.72;;;18.88;84.12
44926;BME280;30662;51.210;7.656;2023-06-10T00:16:33;153505.38;;;18.85;83.58
44926;BME280;30662;51.210;7.656;2023-06-10T00:19:00;153478.59;;;18.74;83.92
44926;BME280;30662;51.210;7.656;2023-06-10T00:21:27;153472.25;;;18.72;85.26
44926;BME280;30662;51.210;7.656;2023-06-10T00:23:54;153481.13;;;18.76;85.10
44926;BME280;30662;51.210;7.656;2023-06-10T00:26:22;153476.06;;;18.73;85.27
44926;BME280;30662;51.210;7.656;2023-06-10T00:28:48;153469.72;;;18.71;84.64
44926;BME280;30662;51.210;7.656;2023-06-10T00:31:15;153453.13;;;18.64;85.10
44926;BME280;30662;51.210;7.656;2023-06-10T00:33:41;153446.78;;;18.62;84.73
44926;BME280;30662;51.210;7.656;2023-06-10T00:36:07;153449.31;;;18.63;85.22
44926;BME280;30662;51.210;7.656;2023-06-10T00:38:32;153455.66;;;18.65;85.74
44926;BME280;30662;51.210;7.656;2023-06-10T00:40:59;153436.56;;;18.58;84.91
44926;BME280;30662;51.210;7.656;2023-06-10T00:43:25;153430.22;;;18.55;86.32
44926;BME280;30662;51.210;7.656;2023-06-10T00:45:51;153444.19;;;18.61;85.06
44926;BME280;30662;51.210;7.656;2023-06-10T00:48:18;153430.22;;;18.55;85.65
44926;BME280;30662;51.210;7.656;2023-06-10T00:50:45;153458.25;;;18.66;85.22
44926;BME280;30662;51.210;7.656;2023-06-10T00:53:12;153386.91;;;18.38;85.15
44926;BME280;30662;51.210;7.656;2023-06-10T00:55:40;153395.84;;;18.41;86.01
44926;BME280;30662;51.210;7.656;2023-06-10T00:58:06;153418.75;;;18.51;84.64
44926;BME280;30662;51.210;7.656;2023-06-10T01:00:33;153408.53;;;18.46;85.32
44926;BME280;30662;51.210;7.656;2023-06-10T01:02:58;153392.03;;;18.40;84.31
44926;BME280;30662;51.210;7.656;2023-06-10T01:05:24;153386.91;;;18.38;84.58
44926;BME280;30662;51.210;7.656;2023-06-10T01:10:32;153421.28;;;18.52;82.57
44926;BME280;30662;51.210;7.656;2023-06-10T01:13:00;153406.00;;;18.45;82.07
44926;BME280;30662;51.210;7.656;2023-06-10T01:15:30;153381.84;;;18.36;82.07
44926;BME280;30662;51.210;7.656;2023-06-10T01:20:31;153420.00;;;18.51;81.34
44926;BME280;30662;51.210;7.656;2023-06-10T01:22:59;153444.19;;;18.61;80.12
44926;BME280;30662;51.210;7.656;2023-06-10T01:25:26;153404.72;;;18.45;82.02
44926;BME280;30662;51.210;7.656;2023-06-10T01:31:13;153397.13;;;18.42;81.62
44926;BME280;30662;51.210;7.656;2023-06-10T01:33:43;153361.47;;;18.28;81.53
44926;BME280;30662;51.210;7.656;2023-06-10T01:36:12;153324.56;;;18.13;82.96
44926;BME280;30662;51.210;7.656;2023-06-10T01:38:46;153336.00;;;18.17;82.50
44926;BME280;30662;51.210;7.656;2023-06-10T01:41:14;153338.59;;;18.18;80.38
44926;BME280;30662;51.210;7.656;2023-06-10T01:43:43;153315.63;;;18.09;81.23
44926;BME280;30662;51.210;7.656;2023-06-10T01:46:10;153346.19;;;18.22;80.32
44926;BME280;30662;51.210;7.656;2023-06-10T01:48:37;153351.28;;;18.24;80.42
44926;BME280;30662;51.210;7.656;2023-06-10T01:51:04;153337.31;;;18.18;80.04
44926;BME280;30662;51.210;7.656;2023-06-10T01:53:30;153330.91;;;18.15;79.62
44926;BME280;30662;51.210;7.656;2023-06-10T01:55:56;153324.56;;;18.13;79.40
44926;BME280;30662;51.210;7.656;2023-06-10T01:58:22;153329.66;;;18.15;79.24
44926;BME280;30662;51.210;7.656;2023-06-10T02:00:47;153330.91;;;18.15;79.53
44926;BME280;30662;51.210;7.656;2023-06-10T02:03:13;153310.56;;;18.07;79.73
44926;BME280;30662;51.210;7.656;2023-06-10T02:05:40;153297.81;;;18.02;80.20
44926;BME280;30662;51.210;7.656;2023-06-10T02:08:06;153294.03;;;18.01;80.15
44926;BME280;30662;51.210;7.656;2023-06-10T02:10:31;153296.56;;;18.02;78.65
44926;BME280;30662;51.210;7.656;2023-06-10T02:12:57;153269.84;;;17.91;79.64
44926;BME280;30662;51.210;7.656;2023-06-10T02:15:23;153273.66;;;17.92;78.82
44926;BME280;30662;51.210;7.656;2023-06-10T02:17:50;153245.66;;;17.81;78.08
44926;BME280;30662;51.210;7.656;2023-06-10T02:20:16;153263.47;;;17.88;77.78
44926;BME280;30662;51.210;7.656;2023-06-10T02:22:42;153297.81;;;18.02;77.20
44926;BME280;30662;51.210;7.656;2023-06-10T02:25:08;153288.94;;;17.99;76.83
44926;BME280;30662;51.210;7.656;2023-06-10T02:27:35;153295.28;;;18.01;76.03
44926;BME280;30662;51.210;7.656;2023-06-10T02:30:01;153328.38;;;18.14;74.56
44926;BME280;30662;51.210;7.656;2023-06-10T02:32:26;153323.31;;;18.12;74.27
44926;BME280;30662;51.210;7.656;2023-06-10T02:34:54;153348.75;;;18.23;73.57
44926;BME280;30662;51.210;7.656;2023-06-10T02:37:20;153301.69;;;18.04;75.44
44926;BME280;30662;51.210;7.656;2023-06-10T02:39:46;153278.75;;;17.95;76.65
44926;BME280;30662;51.210;7.656;2023-06-10T02:42:12;153231.69;;;17.76;77.78
44926;BME280;30662;51.210;7.656;2023-06-10T02:44:38;153230.44;;;17.75;78.45
44926;BME280;30662;51.210;7.656;2023-06-10T02:47:04;153241.84;;;17.80;77.58
44926;BME280;30662;51.210;7.656;2023-06-10T02:49:30;153238.03;;;17.78;76.32
44926;BME280;30662;51.210;7.656;2023-06-10T02:51:56;153224.03;;;17.73;77.29
44926;BME280;30662;51.210;7.656;2023-06-10T02:54:23;153173.09;;;17.52;77.90
44926;BME280;30662;51.210;7.656;2023-06-10T02:56:50;153169.28;;;17.51;78.56
44926;BME280;30662;51.210;7.656;2023-06-10T02:59:18;153197.28;;;17.62;75.81
44926;BME280;30662;51.210;7.656;2023-06-10T03:01:46;153192.22;;;17.60;75.59
44926;BME280;30662;51.210;7.656;2023-06-10T03:04:12;153168.00;;;17.50;76.31
44926;BME280;30662;51.210;7.656;2023-06-10T03:06:39;153190.91;;;17.59;75.39
44926;BME280;30662;51.210;7.656;2023-06-10T03:09:06;153161.66;;;17.48;75.22
44926;BME280;30662;51.210;7.656;2023-06-10T03:11:35;153129.88;;;17.35;77.02
44926;BME280;30662;51.210;7.656;2023-06-10T03:14:01;153138.78;;;17.39;76.11
44926;BME280;30662;51.210;7.656;2023-06-10T03:16:27;153217.63;;;17.70;74.75
44926;BME280;30662;51.210;7.656;2023-06-10T03:18:55;153197.28;;;17.62;74.21
44926;BME280;30662;51.210;7.656;2023-06-10T03:21:22;153175.69;;;17.53;74.74
44926;BME280;30662;51.210;7.656;2023-06-10T03:23:48;153184.56;;;17.57;74.50
44926;BME280;30662;51.210;7.656;2023-06-10T03:26:14;153178.22;;;17.54;74.25
44926;BME280;30662;51.210;7.656;2023-06-10T03:28:41;153184.56;;;17.57;73.96
44926;BME280;30662;51.210;7.656;2023-06-10T03:31:07;153189.63;;;17.59;73.00
44926;BME280;30662;51.210;7.656;2023-06-10T03:33:33;153165.47;;;17.49;72.73
44926;BME280;30662;51.210;7.656;2023-06-10T03:35:59;153183.28;;;17.56;72.30
44926;BME280;30662;51.210;7.656;2023-06-10T03:38:25;153148.94;;;17.43;73.29
44926;BME280;30662;51.210;7.656;2023-06-10T03:40:51;153164.22;;;17.49;72.34
44926;BME280;30662;51.210;7.656;2023-06-10T03:43:17;153185.81;;;17.57;72.65
44926;BME280;30662;51.210;7.656;2023-06-10T03:45:43;153176.94;;;17.54;71.93
44926;BME280;30662;51.210;7.656;2023-06-10T03:48:09;153182.03;;;17.56;71.80
44926;BME280;30662;51.210;7.656;2023-06-10T03:50:35;153174.41;;;17.53;72.29
44926;BME280;30662;51.210;7.656;2023-06-10T03:53:02;153175.69;;;17.53;73.45
44926;BME280;30662;51.210;7.656;2023-06-10T03:55:28;153208.72;;;17.67;71.34
44926;BME280;30662;51.210;7.656;2023-06-10T03:57:53;153224.03;;;17.73;70.60
44926;BME280;30662;51.210;7.656;2023-06-10T04:00:20;153198.56;;;17.62;71.59
44926;BME280;30662;51.210;7.656;2023-06-10T04:02:47;153224.03;;;17.73;71.68
44926;BME280;30662;51.210;7.656;2023-06-10T04:05:19;153229.16;;;17.75;71.18
44926;BME280;30662;51.210;7.656;2023-06-10T04:07:48;153225.31;;;17.73;70.88
44926;BME280;30662;51.210;7.656;2023-06-10T04:10:15;153235.50;;;17.77;71.26
44926;BME280;30662;51.210;7.656;2023-06-10T04:12:41;153211.28;;;17.68;74.25
44926;BME280;30662;51.210;7.656;2023-06-10T04:15:07;153207.44;;;17.66;76.01
44926;BME280;30662;51.210;7.656;2023-06-10T04:17:34;153243.13;;;17.80;73.08
44926;BME280;30662;51.210;7.656;2023-06-10T04:20:00;153232.97;;;17.76;74.66
44926;BME280;30662;51.210;7.656;2023-06-10T04:22:26;153245.66;;;17.81;73.75
44926;BME280;30662;51.210;7.656;2023-06-10T04:24:52;153283.88;;;17.97;77.27
44926;BME280;30662;51.210;7.656;2023-06-10T04:27:19;153240.56;;;17.79;76.31
44926;BME280;30662;51.210;7.656;2023-06-10T04:29:45;153273.66;;;17.92;77.55
44926;BME280;30662;51.210;7.656;2023-06-10T04:32:11;153288.94;;;17.99;75.49
44926;BME280;30662;51.210;7.656;2023-06-10T04:34:37;153267.31;;;17.90;73.09
44926;BME280;30662;51.210;7.656;2023-06-10T04:37:06;153267.31;;;17.90;72.40
44926;BME280;30662;51.210;7.656;2023-06-10T04:39:32;153306.75;;;18.06;70.11
44926;BME280;30662;51.210;7.656;2023-06-10T04:41:58;153336.00;;;18.17;71.87
44926;BME280;30662;51.210;7.656;2023-06-10T04:44:24;153342.38;;;18.20;72.45
44926;BME280;30662;51.210;7.656;2023-06-10T04:46:50;153344.94;;;18.21;71.84
44926;BME280;30662;51.210;7.656;2023-06-10T04:49:16;153315.63;;;18.09;75.29
44926;BME280;30662;51.210;7.656;2023-06-10T04:51:42;153314.38;;;18.09;75.13
44926;BME280;30662;51.210;7.656;2023-06-10T04:54:08;153360.22;;;18.27;73.47
44926;BME280;30662;51.210;7.656;2023-06-10T04:56:34;153348.75;;;18.23;72.14
44926;BME280;30662;51.210;7.656;2023-06-10T04:59:00;153402.19;;;18.44;71.33
44926;BME280;30662;51.210;7.656;2023-06-10T05:01:26;153392.03;;;18.40;72.24
44926;BME280;30662;51.210;7.656;2023-06-10T05:03:52;153420.00;;;18.51;69.76
44926;BME280;30662;51.210;7.656;2023-06-10T05:06:18;153454.38;;;18.65;67.78
44926;BME280;30662;51.210;7.656;2023-06-10T05:08:43;153450.56;;;18.63;69.57
44926;BME280;30662;51.210;7.656;2023-06-10T05:11:09;153476.06;;;18.73;69.86
44926;BME280;30662;51.210;7.656;2023-06-10T05:13:35;153491.34;;;18.80;70.27
44926;BME280;30662;51.210;7.656;2023-06-10T05:16:01;153486.28;;;18.78;71.42
44926;BME280;30662;51.210;7.656;2023-06-10T05:18:28;153481.13;;;18.76;70.95
44926;BME280;30662;51.210;7.656;2023-06-10T05:20:54;153462.06;;;18.68;69.57
44926;BME280;30662;51.210;7.656;2023-06-10T05:23:20;153524.47;;;18.93;68.12
44926;BME280;30662;51.210;7.656;2023-06-10T05:25:46;153507.91;;;18.86;67.34
44926;BME280;30662;51.210;7.656;2023-06-10T05:28:12;153495.16;;;18.81;68.49
44926;BME280;30662;51.210;7.656;2023-06-10T05:30:41;153552.44;;;19.04;67.61
44926;BME280;30662;51.210;7.656;2023-06-10T05:33:07;153557.56;;;19.06;67.85
44926;BME280;30662;51.210;7.656;2023-06-10T05:35:33;153579.22;;;19.15;68.52
44926;BME280;30662;51.210;7.656;2023-06-10T05:37:58;153589.38;;;19.19;69.38
44926;BME280;30662;51.210;7.656;2023-06-10T05:40:29;153621.22;;;19.32;66.87
44926;BME280;30662;51.210;7.656;2023-06-10T05:42:54;153632.69;;;19.36;68.29
44926;BME280;30662;51.210;7.656;2023-06-10T05:45:20;153639.03;;;19.39;68.21
44926;BME280;30662;51.210;7.656;2023-06-10T05:47:46;153625.03;;;19.33;68.38
44926;BME280;30662;51.210;7.656;2023-06-10T05:50:12;153654.34;;;19.45;66.46
44926;BME280;30662;51.210;7.656;2023-06-10T05:52:38;153645.44;;;19.41;67.34
44926;BME280;30662;51.210;7.656;2023-06-10T05:55:06;153677.25;;;19.54;65.13
44926;BME280;30662;51.210;7.656;2023-06-10T05:57:33;153670.91;;;19.51;66.96
44926;BME280;30662;51.210;7.656;2023-06-10T05:59:59;153697.66;;;19.62;66.56
44926;BME280;30662;51.210;7.656;2023-06-10T06:02:25;153706.63;;;19.66;67.47
44926;BME280;30662;51.210;7.656;2023-06-10T06:04:51;153702.81;;;19.64;66.00
44926;BME280;30662;51.210;7.656;2023-06-10T06:07:17;153733.34;;;19.76;67.00
44926;BME280;30662;51.210;7.656;2023-06-10T06:09:47;153716.78;;;19.70;66.56
44926;BME280;30662;51.210;7.656;2023-06-10T06:12:13;153718.09;;;19.70;66.09
44926;BME280;30662;51.210;7.656;2023-06-10T06:14:39;153760.13;;;19.87;64.98
44926;BME280;30662;51.210;7.656;2023-06-10T06:17:06;153772.88;;;19.92;64.46
44926;BME280;30662;51.210;7.656;2023-06-10T06:19:32;153788.13;;;19.98;65.22
44926;BME280;30662;51.210;7.656;2023-06-10T06:21:58;153781.75;;;19.96;63.24
44926;BME280;30662;51.210;7.656;2023-06-10T06:24:24;153805.94;;;20.05;63.22
44926;BME280;30662;51.210;7.656;2023-06-10T06:26:50;153814.91;;;20.09;62.54
44926;BME280;30662;51.210;7.656;2023-06-10T06:29:16;153809.81;;;20.07;62.90
44926;BME280;30662;51.210;7.656;2023-06-10T06:31:42;153816.16;;;20.09;61.67
44926;BME280;30662;51.210;7.656;2023-06-10T06:34:08;153832.75;;;20.16;63.35
44926;BME280;30662;51.210;7.656;2023-06-10T06:36:34;153835.28;;;20.17;63.58
44926;BME280;30662;51.210;7.656;2023-06-10T06:39:00;153846.75;;;20.22;65.87
44926;BME280;30662;51.210;7.656;2023-06-10T06:41:28;153855.66;;;20.25;64.99
44926;BME280;30662;51.210;7.656;2023-06-10T06:43:55;153890.06;;;20.39;64.95
44926;BME280;30662;51.210;7.656;2023-06-10T06:46:21;153888.81;;;20.38;65.46
44926;BME280;30662;51.210;7.656;2023-06-10T06:48:48;153895.16;;;20.41;65.54
44926;BME280;30662;51.210;7.656;2023-06-10T06:51:14;153907.97;;;20.46;67.20
44926;BME280;30662;51.210;7.656;2023-06-10T06:53:40;153947.47;;;20.62;67.20
44926;BME280;30662;51.210;7.656;2023-06-10T06:56:11;153933.44;;;20.56;63.83
44926;BME280;30662;51.210;7.656;2023-06-10T06:58:37;153928.34;;;20.54;64.77
44926;BME280;30662;51.210;7.656;2023-06-10T07:01:04;153948.75;;;20.62;62.64
44926;BME280;30662;51.210;7.656;2023-06-10T07:03:30;153965.31;;;20.69;62.41
44926;BME280;30662;51.210;7.656;2023-06-10T07:05:56;153986.97;;;20.78;62.81
44926;BME280;30662;51.210;7.656;2023-06-10T07:08:22;153976.78;;;20.74;63.59
44926;BME280;30662;51.210;7.656;2023-06-10T07:10:48;153985.69;;;20.77;64.30
44926;BME280;30662;51.210;7.656;2023-06-10T07:13:15;153999.72;;;20.83;66.12
44926;BME280;30662;51.210;7.656;2023-06-10T07:15:40;154027.78;;;20.94;64.59
44926;BME280;30662;51.210;7.656;2023-06-10T07:18:07;154052.00;;;21.04;65.06
44926;BME280;30662;51.210;7.656;2023-06-10T07:20:32;154053.28;;;21.04;61.75
44926;BME280;30662;51.210;7.656;2023-06-10T07:22:58;154041.78;;;21.00;62.65
44926;BME280;30662;51.210;7.656;2023-06-10T07:25:24;154114.50;;;21.29;63.24
44926;BME280;30662;51.210;7.656;2023-06-10T07:27:50;154108.09;;;21.26;62.70
44926;BME280;30662;51.210;7.656;2023-06-10T07:30:16;154103.00;;;21.24;62.81
44926;BME280;30662;51.210;7.656;2023-06-10T07:32:42;154114.50;;;21.29;62.53
44926;BME280;30662;51.210;7.656;2023-06-10T07:35:09;154157.88;;;21.46;63.53
44926;BME280;30662;51.210;7.656;2023-06-10T07:37:38;154180.81;;;21.55;62.51
44926;BME280;30662;51.210;7.656;2023-06-10T07:40:05;154189.78;;;21.59;60.38
44926;BME280;30662;51.210;7.656;2023-06-10T07:42:34;154199.94;;;21.63;60.52
44926;BME280;30662;51.210;7.656;2023-06-10T07:45:00;154229.31;;;21.74;60.65
44926;BME280;30662;51.210;7.656;2023-06-10T07:47:26;154254.78;;;21.85;61.32
44926;BME280;30662;51.210;7.656;2023-06-10T07:49:51;154267.56;;;21.90;60.20
44926;BME280;30662;51.210;7.656;2023-06-10T07:52:17;154287.97;;;21.98;59.66
44926;BME280;30662;51.210;7.656;2023-06-10T07:54:43;154285.41;;;21.97;60.93
44926;BME280;30662;51.210;7.656;2023-06-10T07:57:09;154300.75;;;22.03;61.17
44926;BME280;30662;51.210;7.656;2023-06-10T07:59:35;154302.00;;;22.03;60.64
44926;BME280;30662;51.210;7.656;2023-06-10T08:02:01;154304.56;;;22.05;61.46
44926;BME280;30662;51.210;7.656;2023-06-10T08:04:27;154326.28;;;22.13;60.74
44926;BME280;30662;51.210;7.656;2023-06-10T08:06:53;154350.50;;;22.23;62.95
44926;BME280;30662;51.210;7.656;2023-06-10T08:09:20;154376.06;;;22.33;62.78
44926;BME280;30662;51.210;7.656;2023-06-10T08:11:47;154402.81;;;22.44;61.22
44926;BME280;30662;51.210;7.656;2023-06-10T08:14:13;154413.06;;;22.48;60.57
44926;BME280;30662;51.210;7.656;2023-06-10T08:16:39;154436.00;;;22.57;58.19
44926;BME280;30662;51.210;7.656;2023-06-10T08:19:05;154456.41;;;22.65;60.73
44926;BME280;30662;51.210;7.656;2023-06-10T08:21:31;154490.88;;;22.79;59.81
44926;BME280;30662;51.210;7.656;2023-06-10T08:23:57;154498.56;;;22.82;57.52
44926;BME280;30662;51.210;7.656;2023-06-10T08:26:23;154499.84;;;22.82;57.18
44926;BME280;30662;51.210;7.656;2023-06-10T08:28:50;154516.50;;;22.89;57.72
44926;BME280;30662;51.210;7.656;2023-06-10T08:31:15;154521.56;;;22.91;57.22
44926;BME280;30662;51.210;7.656;2023-06-10T08:33:42;154540.72;;;22.99;57.75
44926;BME280;30662;51.210;7.656;2023-06-10T08:36:08;154558.59;;;23.06;56.36
44926;BME280;30662;51.210;7.656;2023-06-10T08:38:34;154556.03;;;23.05;56.75
44926;BME280;30662;51.210;7.656;2023-06-10T08:41:03;154600.69;;;23.23;56.59
44926;BME280;30662;51.210;7.656;2023-06-10T08:43:44;154612.19;;;23.27;55.70
44926;BME280;30662;51.210;7.656;2023-06-10T08:46:13;154653.03;;;23.44;53.68
44926;BME280;30662;51.210;7.656;2023-06-10T08:48:43;154639.00;;;23.38;53.84
44926;BME280;30662;51.210;7.656;2023-06-10T08:51:11;154647.94;;;23.42;53.54
44926;BME280;30662;51.210;7.656;2023-06-10T08:53:41;154658.13;;;23.46;53.84
44926;BME280;30662;51.210;7.656;2023-06-10T08:56:10;154654.31;;;23.44;53.68
44926;BME280;30662;51.210;7.656;2023-06-10T08:58:37;154667.09;;;23.49;53.11
44926;BME280;30662;51.210;7.656;2023-06-10T09:01:07;154690.06;;;23.58;51.82
44926;BME280;30662;51.210;7.656;2023-06-10T09:03:37;154691.34;;;23.59;52.55
44926;BME280;30662;51.210;7.656;2023-06-10T09:06:04;154714.38;;;23.68;52.84
44926;BME280;30662;51.210;7.656;2023-06-10T09:08:31;154748.84;;;23.82;52.61
44926;BME280;30662;51.210;7.656;2023-06-10T09:10:58;154752.72;;;23.83;53.39
44926;BME280;30662;51.210;7.656;2023-06-10T09:13:24;154803.75;;;24.04;50.21
44926;BME280;30662;51.210;7.656;2023-06-10T09:15:50;154808.91;;;24.06;48.59
44926;BME280;30662;51.210;7.656;2023-06-10T09:18:17;154817.81;;;24.09;48.82
44926;BME280;30662;51.210;7.656;2023-06-10T09:20:43;154844.66;;;24.20;47.00
44926;BME280;30662;51.210;7.656;2023-06-10T09:23:09;154824.25;;;24.12;50.08
44926;BME280;30662;51.210;7.656;2023-06-10T09:25:37;154843.41;;;24.19;51.34
44926;BME280;30662;51.210;7.656;2023-06-10T09:28:03;154830.59;;;24.14;50.99
44926;BME280;30662;51.210;7.656;2023-06-10T09:30:33;154782.06;;;23.95;51.96
44926;BME280;30662;51.210;7.656;2023-06-10T09:33:09;154736.09;;;23.77;53.98
44926;BME280;30662;51.210;7.656;2023-06-10T09:35:37;154725.88;;;23.73;55.26
44926;BME280;30662;51.210;7.656;2023-06-10T09:38:10;154742.47;;;23.79;56.74
44926;BME280;30662;51.210;7.656;2023-06-10T09:40:51;154805.03;;;24.04;55.89
44926;BME280;30662;51.210;7.656;2023-06-10T09:43:17;154854.84;;;24.24;54.26
44926;BME280;30662;51.210;7.656;2023-06-10T09:45:43;154874.03;;;24.32;53.58
44926;BME280;30662;51.210;7.656;2023-06-10T09:48:09;154861.28;;;24.27;53.85
44926;BME280;30662;51.210;7.656;2023-06-10T09:50:43;154829.34;;;24.14;53.45
44926;BME280;30662;51.210;7.656;2023-06-10T09:53:12;154824.25;;;24.12;53.32
44926;BME280;30662;51.210;7.656;2023-06-10T09:55:39;154891.94;;;24.39;52.98
44926;BME280;30662;51.210;7.656;2023-06-10T09:58:05;154950.72;;;24.62;50.73
44926;BME280;30662;51.210;7.656;2023-06-10T10:00:34;155064.50;;;25.08;50.74
44926;BME280;30662;51.210;7.656;2023-06-10T10:03:01;155132.22;;;25.35;51.60
44926;BME280;30662;51.210;7.656;2023-06-10T10:05:27;155211.50;;;25.66;49.68
44926;BME280;30662;51.210;7.656;2023-06-10T10:07:53;155233.25;;;25.75;48.74
44926;BME280;30662;51.210;7.656;2023-06-10T10:10:20;155267.78;;;25.89;47.07
44926;BME280;30662;51.210;7.656;2023-06-10T10:12:48;155199.97;;;25.62;49.27
44926;BME280;30662;51.210;7.656;2023-06-10T10:15:16;155127.13;;;25.33;51.68
44926;BME280;30662;51.210;7.656;2023-06-10T10:17:55;155106.66;;;25.24;51.88
44926;BME280;30662;51.210;7.656;2023-06-10T10:20:29;155031.22;;;24.94;52.49
44926;BME280;30662;51.210;7.656;2023-06-10T10:22:57;154996.72;;;24.81;52.25
44926;BME280;30662;51.210;7.656;2023-06-10T10:25:27;154967.31;;;24.69;52.82
44926;BME280;30662;51.210;7.656;2023-06-10T10:27:57;154976.28;;;24.72;52.64
44926;BME280;30662;51.210;7.656;2023-06-10T10:30:25;154966.03;;;24.68;52.90
44926;BME280;30662;51.210;7.656;2023-06-10T10:32:57;155004.38;;;24.84;52.69
44926;BME280;30662;51.210;7.656;2023-06-10T10:35:24;155035.06;;;24.96;53.04
44926;BME280;30662;51.210;7.656;2023-06-10T10:37:54;155040.16;;;24.98;52.32
44926;BME280;30662;51.210;7.656;2023-06-10T10:40:21;155026.13;;;24.92;52.16
44926;BME280;30662;51.210;7.656;2023-06-10T10:42:51;155060.69;;;25.06;52.33
44926;BME280;30662;51.210;7.656;2023-06-10T10:45:18;155047.84;;;25.01;53.51
44926;BME280;30662;51.210;7.656;2023-06-10T10:47:52;155041.44;;;24.98;52.25
44926;BME280;30662;51.210;7.656;2023-06-10T10:50:19;154998.00;;;24.81;52.90
44926;BME280;30662;51.210;7.656;2023-06-10T10:52:58;155014.63;;;24.88;53.32
44926;BME280;30662;51.210;7.656;2023-06-10T10:55:25;155018.44;;;24.89;53.54
44926;BME280;30662;51.210;7.656;2023-06-10T10:58:08;155040.16;;;24.98;53.97
44926;BME280;30662;51.210;7.656;2023-06-10T11:00:43;155067.06;;;25.09;53.39
44926;BME280;30662;51.210;7.656;2023-06-10T11:03:14;155047.84;;;25.01;53.00
44926;BME280;30662;51.210;7.656;2023-06-10T11:05:45;155035.06;;;24.96;53.14
44926;BME280;30662;51.210;7.656;2023-06-10T11:10:58;155019.72;;;24.90;49.04
44926;BME280;30662;51.210;7.656;2023-06-10T11:13:25;155055.53;;;25.04;49.50
44926;BME280;30662;51.210;7.656;2023-06-10T11:15:57;155165.47;;;25.48;49.14
44926;BME280;30662;51.210;7.656;2023-06-10T11:18:28;155242.19;;;25.78;48.28
44926;BME280;30662;51.210;7.656;2023-06-10T11:21:02;155324.03;;;26.11;47.02
44926;BME280;30662;51.210;7.656;2023-06-10T11:31:29;155384.13;;;26.35;42.28
44926;BME280;30662;51.210;7.656;2023-06-10T11:34:02;155473.72;;;26.71;40.91
44926;BME280;30662;51.210;7.656;2023-06-10T11:36:32;155555.63;;;27.03;39.36
44926;BME280;30662;51.210;7.656;2023-06-10T11:39:03;155620.88;;;27.29;39.84
44926;BME280;30662;51.210;7.656;2023-06-10T11:41:31;155632.41;;;27.34;39.42
44926;BME280;30662;51.210;7.656;2023-06-10T11:44:02;155594.03;;;27.18;38.37
44926;BME280;30662;51.210;7.656;2023-06-10T11:46:28;155464.78;;;26.67;39.01
44926;BME280;30662;51.210;7.656;2023-06-10T11:48:56;155373.94;;;26.31;39.60
44926;BME280;30662;51.210;7.656;2023-06-10T11:51:25;155431.53;;;26.54;39.48
44926;BME280;30662;51.210;7.656;2023-06-10T11:53:52;155373.94;;;26.31;39.50
44926;BME280;30662;51.210;7.656;2023-06-10T11:56:22;155302.31;;;26.02;40.12
44926;BME280;30662;51.210;7.656;2023-06-10T11:59:02;155229.44;;;25.73;40.17
44926;BME280;30662;51.210;7.656;2023-06-10T12:01:42;155180.81;;;25.54;40.49
44926;BME280;30662;51.210;7.656;2023-06-10T12:04:15;155276.72;;;25.92;39.83
44926;BME280;30662;51.210;7.656;2023-06-10T12:06:43;155481.41;;;26.74;38.86
44926;BME280;30662;51.210;7.656;2023-06-10T12:11:59;155695.09;;;27.59;36.23
44926;BME280;30662;51.210;7.656;2023-06-10T12:17:38;155700.25;;;27.61;36.52
44926;BME280;30662;51.210;7.656;2023-06-10T12:20:07;155595.31;;;27.19;36.55
44926;BME280;30662;51.210;7.656;2023-06-10T12:22:42;155594.03;;;27.18;36.59
44926;BME280;30662;51.210;7.656;2023-06-10T12:25:09;155686.16;;;27.55;36.25
44926;BME280;30662;51.210;7.656;2023-06-10T12:27:37;155807.81;;;28.03;35.59
44926;BME280;30662;51.210;7.656;2023-06-10T12:30:05;155924.34;;;28.50;35.32
44926;BME280;30662;51.210;7.656;2023-06-10T12:32:45;155852.59;;;28.21;34.71
44926;BME280;30662;51.210;7.656;2023-06-10T12:35:19;155674.63;;;27.51;34.96
44926;BME280;30662;51.210;7.656;2023-06-10T12:40:28;155495.44;;;26.79;37.30
44926;BME280;30662;51.210;7.656;2023-06-10T12:43:01;155463.50;;;26.66;38.10
44926;BME280;30662;51.210;7.656;2023-06-10T12:45:29;155550.47;;;27.01;37.17
44926;BME280;30662;51.210;7.656;2023-06-10T12:50:43;155440.44;;;26.57;35.78
44926;BME280;30662;51.210;7.656;2023-06-10T12:53:11;155460.97;;;26.65;35.51
44926;BME280;30662;51.210;7.656;2023-06-10T12:55:37;155576.13;;;27.11;36.11
44926;BME280;30662;51.210;7.656;2023-06-10T12:58:04;155706.63;;;27.63;35.42
44926;BME280;30662;51.210;7.656;2023-06-10T13:00:30;155844.94;;;28.18;31.66
44926;BME280;30662;51.210;7.656;2023-06-10T13:03:05;155965.31;;;28.66;32.56
44926;BME280;30662;51.210;7.656;2023-06-10T13:05:33;155976.84;;;28.71;30.21
44926;BME280;30662;51.210;7.656;2023-06-10T13:07:59;156067.81;;;29.07;30.72
44926;BME280;30662;51.210;7.656;2023-06-10T13:10:25;156131.84;;;29.32;30.46
44926;BME280;30662;51.210;7.656;2023-06-10T13:12:52;156156.22;;;29.42;29.85
44926;BME280;30662;51.210;7.656;2023-06-10T13:15:18;156053.72;;;29.01;30.48
44926;BME280;30662;51.210;7.656;2023-06-10T13:17:44;155800.09;;;28.00;30.83
44926;BME280;30662;51.210;7.656;2023-06-10T13:20:12;155677.19;;;27.52;31.20
44926;BME280;30662;51.210;7.656;2023-06-10T13:22:38;155562.03;;;27.06;31.60